sensor_id;sensor_type;location;lat;lon;timestamp;P1;durP1;ratioP1;P2;durP2;ratioP2
55409;SDS011;41279;43.546;16.426;2022-11-28T00:00:58;10.48;;;4.75;;
55409;SDS011;41279;43.546;16.426;2022-11-28T00:03:24;8.65;;;4.20;;
55409;SDS011;41279;43.546;16.426;2022-11-28T00:05:50;9.77;;;4.78;;
55409;SDS011;41279;43.546;16.426;2022-11-28T00:08:15;6.60;;;3.67;;
55409;SDS011;41279;43.546;16.426;2022-11-28T00:10:41;7.47;;;4.03;;
55409;SDS011;41279;43.546;16.426;2022-11-28T00:13:06;8.23;;;4.55;;
55409;SDS011;41279;43.546;16.426;2022-11-28T00:15:32;10.63;;;5.13;;
55409;SDS011;41279;43.546;16.426;2022-11-28T00:17:57;8.05;;;4.28;;
55409;SDS011;41279;43.546;16.426;2022-11-28T00:20:23;8.32;;;4.75;;
55409;SDS011;41279;43.546;16.426;2022-11-28T00:22:48;10.07;;;4.75;;
55409;SDS011;41279;43.546;16.426;2022-11-28T00:25:13;9.20;;;5.10;;
55409;SDS011;41279;43.546;16.426;2022-11-28T00:27:39;9.20;;;4.70;;
55409;SDS011;41279;43.546;16.426;2022-11-28T00:30:04;8.80;;;4.95;;
55409;SDS011;41279;43.546;16.426;2022-11-28T00:32:30;8.63;;;4.63;;
55409;SDS011;41279;43.546;16.426;2022-11-28T00:35:02;8.55;;;4.05;;
55409;SDS011;41279;43.546;16.426;2022-11-28T00:37:28;7.72;;;4.10;;
55409;SDS011;41279;43.546;16.426;2022-11-28T00:39:53;9.98;;;4.95;;
55409;SDS011;41279;43.546;16.426;2022-11-28T00:42:18;9.35;;;3.78;;
55409;SDS011;41279;43.546;16.426;2022-11-28T00:44:47;8.65;;;4.22;;
55409;SDS011;41279;43.546;16.426;2022-11-28T00:47:13;7.63;;;4.30;;
55409;SDS011;41279;43.546;16.426;2022-11-28T00:49:39;9.23;;;4.40;;
55409;SDS011;41279;43.546;16.426;2022-11-28T00:52:04;7.07;;;3.70;;
55409;SDS011;41279;43.546;16.426;2022-11-28T00:54:29;8.52;;;4.45;;
55409;SDS011;41279;43.546;16.426;2022-11-28T00:56:54;6.68;;;3.50;;
55409;SDS011;41279;43.546;16.426;2022-11-28T00:59:20;9.82;;;4.93;;
55409;SDS011;41279;43.546;16.426;2022-11-28T01:01:45;8.40;;;4.65;;
55409;SDS011;41279;43.546;16.426;2022-11-28T01:04:11;6.57;;;3.72;;
55409;SDS011;41279;43.546;16.426;2022-11-28T01:06:43;9.65;;;4.65;;
55409;SDS011;41279;43.546;16.426;2022-11-28T01:09:12;7.95;;;4.13;;
55409;SDS011;41279;43.546;16.426;2022-11-28T01:11:39;7.50;;;4.40;;
55409;SDS011;41279;43.546;16.426;2022-11-28T01:14:05;6.97;;;3.75;;
55409;SDS011;41279;43.546;16.426;2022-11-28T01:16:31;7.60;;;3.85;;
55409;SDS011;41279;43.546;16.426;2022-11-28T01:18:56;6.78;;;4.15;;
55409;SDS011;41279;43.546;16.426;2022-11-28T01:21:22;6.50;;;3.92;;
55409;SDS011;41279;43.546;16.426;2022-11-28T01:23:47;7.95;;;4.63;;
55409;SDS011;41279;43.546;16.426;2022-11-28T01:26:17;5.60;;;3.45;;
55409;SDS011;41279;43.546;16.426;2022-11-28T01:28:45;8.10;;;3.55;;
55409;SDS011;41279;43.546;16.426;2022-11-28T01:31:11;9.82;;;4.30;;
55409;SDS011;41279;43.546;16.426;2022-11-28T01:33:39;6.68;;;4.00;;
55409;SDS011;41279;43.546;16.426;2022-11-28T01:36:05;6.75;;;3.90;;
55409;SDS011;41279;43.546;16.426;2022-11-28T01:38:31;7.32;;;4.32;;
55409;SDS011;41279;43.546;16.426;2022-11-28T01:40:58;5.38;;;3.40;;
55409;SDS011;41279;43.546;16.426;2022-11-28T01:43:24;6.75;;;4.00;;
55409;SDS011;41279;43.546;16.426;2022-11-28T01:45:50;7.85;;;4.18;;
55409;SDS011;41279;43.546;16.426;2022-11-28T01:48:24;6.93;;;3.88;;
55409;SDS011;41279;43.546;16.426;2022-11-28T01:50:52;9.15;;;4.60;;
55409;SDS011;41279;43.546;16.426;2022-11-28T01:53:25;7.72;;;4.43;;
55409;SDS011;41279;43.546;16.426;2022-11-28T01:56:05;8.95;;;4.65;;
55409;SDS011;41279;43.546;16.426;2022-11-28T01:58:38;7.63;;;4.43;;
55409;SDS011;41279;43.546;16.426;2022-11-28T02:01:08;7.03;;;4.10;;
55409;SDS011;41279;43.546;16.426;2022-11-28T02:03:38;6.25;;;3.58;;
55409;SDS011;41279;43.546;16.426;2022-11-28T02:06:07;8.38;;;4.43;;
55409;SDS011;41279;43.546;16.426;2022-11-28T02:08:33;7.47;;;4.18;;
55409;SDS011;41279;43.546;16.426;2022-11-28T02:11:06;8.25;;;4.35;;
55409;SDS011;41279;43.546;16.426;2022-11-28T02:22:11;7.13;;;4.10;;
55409;SDS011;41279;43.546;16.426;2022-11-28T02:32:44;8.73;;;4.55;;
55409;SDS011;41279;43.546;16.426;2022-11-28T02:41:18;6.70;;;3.80;;
55409;SDS011;41279;43.546;16.426;2022-11-28T02:48:56;6.13;;;3.67;;
55409;SDS011;41279;43.546;16.426;2022-11-28T02:54:24;7.47;;;4.05;;
55409;SDS011;41279;43.546;16.426;2022-11-28T02:56:52;8.45;;;4.63;;
55409;SDS011;41279;43.546;16.426;2022-11-28T03:01:53;8.48;;;3.92;;
55409;SDS011;41279;43.546;16.426;2022-11-28T03:10:05;9.60;;;4.05;;
55409;SDS011;41279;43.546;16.426;2022-11-28T03:12:52;7.47;;;4.10;;
55409;SDS011;41279;43.546;16.426;2022-11-28T03:15:35;8.07;;;4.40;;
55409;SDS011;41279;43.546;16.426;2022-11-28T03:28:32;7.38;;;4.10;;
55409;SDS011;41279;43.546;16.426;2022-11-28T03:33:36;10.05;;;5.00;;
55409;SDS011;41279;43.546;16.426;2022-11-28T03:36:06;8.30;;;4.47;;
55409;SDS011;41279;43.546;16.426;2022-11-28T03:38:37;7.50;;;4.38;;
55409;SDS011;41279;43.546;16.426;2022-11-28T03:41:19;8.35;;;4.47;;
55409;SDS011;41279;43.546;16.426;2022-11-28T03:43:52;7.03;;;4.15;;
55409;SDS011;41279;43.546;16.426;2022-11-28T03:46:22;8.52;;;4.05;;
55409;SDS011;41279;43.546;16.426;2022-11-28T03:48:51;8.02;;;4.50;;
55409;SDS011;41279;43.546;16.426;2022-11-28T03:51:21;6.93;;;4.18;;
55409;SDS011;41279;43.546;16.426;2022-11-28T03:54:00;8.25;;;4.05;;
55409;SDS011;41279;43.546;16.426;2022-11-28T03:56:52;6.78;;;3.42;;
55409;SDS011;41279;43.546;16.426;2022-11-28T03:59:46;7.95;;;4.20;;
55409;SDS011;41279;43.546;16.426;2022-11-28T04:05:01;8.15;;;4.03;;
55409;SDS011;41279;43.546;16.426;2022-11-28T04:07:33;9.13;;;4.70;;
55409;SDS011;41279;43.546;16.426;2022-11-28T04:15:16;9.45;;;4.88;;
55409;SDS011;41279;43.546;16.426;2022-11-28T04:17:53;9.38;;;4.88;;
55409;SDS011;41279;43.546;16.426;2022-11-28T04:23:15;8.23;;;4.30;;
55409;SDS011;41279;43.546;16.426;2022-11-28T04:25:45;7.35;;;4.13;;
55409;SDS011;41279;43.546;16.426;2022-11-28T04:28:17;7.75;;;4.40;;
55409;SDS011;41279;43.546;16.426;2022-11-28T04:30:46;7.20;;;3.78;;
55409;SDS011;41279;43.546;16.426;2022-11-28T04:33:18;7.93;;;4.18;;
55409;SDS011;41279;43.546;16.426;2022-11-28T04:35:49;8.02;;;4.18;;
55409;SDS011;41279;43.546;16.426;2022-11-28T04:38:17;8.13;;;4.53;;
55409;SDS011;41279;43.546;16.426;2022-11-28T04:40:50;9.02;;;5.25;;
55409;SDS011;41279;43.546;16.426;2022-11-28T04:43:40;8.50;;;4.53;;
55409;SDS011;41279;43.546;16.426;2022-11-28T04:46:12;10.10;;;4.13;;
55409;SDS011;41279;43.546;16.426;2022-11-28T04:48:41;6.55;;;4.00;;
55409;SDS011;41279;43.546;16.426;2022-11-28T04:51:18;8.98;;;4.50;;
55409;SDS011;41279;43.546;16.426;2022-11-28T04:56:30;9.38;;;5.00;;
55409;SDS011;41279;43.546;16.426;2022-11-28T04:59:09;8.35;;;4.20;;
55409;SDS011;41279;43.546;16.426;2022-11-28T05:01:36;8.70;;;4.32;;
55409;SDS011;41279;43.546;16.426;2022-11-28T05:04:03;7.78;;;4.57;;
55409;SDS011;41279;43.546;16.426;2022-11-28T05:06:30;7.15;;;3.78;;
55409;SDS011;41279;43.546;16.426;2022-11-28T05:08:57;9.35;;;4.20;;
55409;SDS011;41279;43.546;16.426;2022-11-28T05:11:23;7.45;;;3.83;;
55409;SDS011;41279;43.546;16.426;2022-11-28T05:13:49;9.15;;;4.65;;
55409;SDS011;41279;43.546;16.426;2022-11-28T05:16:14;9.30;;;5.00;;
55409;SDS011;41279;43.546;16.426;2022-11-28T05:18:40;8.65;;;4.60;;
55409;SDS011;41279;43.546;16.426;2022-11-28T05:21:13;8.77;;;4.57;;
55409;SDS011;41279;43.546;16.426;2022-11-28T05:23:39;8.98;;;4.75;;
55409;SDS011;41279;43.546;16.426;2022-11-28T05:26:06;8.05;;;4.18;;
55409;SDS011;41279;43.546;16.426;2022-11-28T05:28:42;8.40;;;4.28;;
55409;SDS011;41279;43.546;16.426;2022-11-28T05:31:13;9.10;;;5.00;;
55409;SDS011;41279;43.546;16.426;2022-11-28T05:33:39;10.25;;;4.50;;
55409;SDS011;41279;43.546;16.426;2022-11-28T05:36:06;9.80;;;4.60;;
55409;SDS011;41279;43.546;16.426;2022-11-28T05:38:33;8.20;;;4.60;;
55409;SDS011;41279;43.546;16.426;2022-11-28T05:40:59;11.30;;;4.57;;
55409;SDS011;41279;43.546;16.426;2022-11-28T05:43:26;11.23;;;4.82;;
55409;SDS011;41279;43.546;16.426;2022-11-28T05:45:51;13.30;;;5.50;;
55409;SDS011;41279;43.546;16.426;2022-11-28T05:48:17;9.45;;;5.03;;
55409;SDS011;41279;43.546;16.426;2022-11-28T05:50:42;10.75;;;5.38;;
55409;SDS011;41279;43.546;16.426;2022-11-28T05:53:08;8.90;;;4.60;;
55409;SDS011;41279;43.546;16.426;2022-11-28T05:55:35;9.10;;;5.13;;
55409;SDS011;41279;43.546;16.426;2022-11-28T05:58:02;10.18;;;5.10;;
55409;SDS011;41279;43.546;16.426;2022-11-28T06:00:27;8.88;;;4.88;;
55409;SDS011;41279;43.546;16.426;2022-11-28T06:02:53;10.55;;;5.60;;
55409;SDS011;41279;43.546;16.426;2022-11-28T06:05:18;10.07;;;5.22;;
55409;SDS011;41279;43.546;16.426;2022-11-28T06:07:43;9.48;;;4.72;;
55409;SDS011;41279;43.546;16.426;2022-11-28T06:10:09;10.30;;;5.18;;
55409;SDS011;41279;43.546;16.426;2022-11-28T06:12:35;12.93;;;5.40;;
55409;SDS011;41279;43.546;16.426;2022-11-28T06:15:00;10.25;;;4.82;;
55409;SDS011;41279;43.546;16.426;2022-11-28T06:17:26;11.90;;;5.20;;
55409;SDS011;41279;43.546;16.426;2022-11-28T06:19:51;10.77;;;5.45;;
55409;SDS011;41279;43.546;16.426;2022-11-28T06:22:16;16.58;;;6.13;;
55409;SDS011;41279;43.546;16.426;2022-11-28T06:24:49;21.05;;;6.70;;
55409;SDS011;41279;43.546;16.426;2022-11-28T06:27:14;16.73;;;6.40;;
55409;SDS011;41279;43.546;16.426;2022-11-28T06:29:39;19.00;;;6.90;;
55409;SDS011;41279;43.546;16.426;2022-11-28T06:32:05;12.43;;;5.75;;
55409;SDS011;41279;43.546;16.426;2022-11-28T06:34:31;15.95;;;5.78;;
55409;SDS011;41279;43.546;16.426;2022-11-28T06:36:56;14.10;;;5.95;;
55409;SDS011;41279;43.546;16.426;2022-11-28T06:39:22;16.67;;;5.72;;
55409;SDS011;41279;43.546;16.426;2022-11-28T06:41:47;17.88;;;6.25;;
55409;SDS011;41279;43.546;16.426;2022-11-28T06:44:14;15.55;;;6.93;;
55409;SDS011;41279;43.546;16.426;2022-11-28T06:46:40;13.90;;;6.70;;
55409;SDS011;41279;43.546;16.426;2022-11-28T06:49:06;12.35;;;6.50;;
55409;SDS011;41279;43.546;16.426;2022-11-28T06:51:31;13.63;;;6.63;;
55409;SDS011;41279;43.546;16.426;2022-11-28T06:53:57;12.02;;;6.65;;
55409;SDS011;41279;43.546;16.426;2022-11-28T06:56:22;14.98;;;6.72;;
55409;SDS011;41279;43.546;16.426;2022-11-28T06:58:54;12.93;;;7.03;;
55409;SDS011;41279;43.546;16.426;2022-11-28T07:01:23;18.55;;;7.47;;
55409;SDS011;41279;43.546;16.426;2022-11-28T07:03:49;17.52;;;6.90;;
55409;SDS011;41279;43.546;16.426;2022-11-28T07:06:16;14.88;;;7.13;;
55409;SDS011;41279;43.546;16.426;2022-11-28T07:08:44;17.20;;;6.55;;
55409;SDS011;41279;43.546;16.426;2022-11-28T07:11:20;17.50;;;6.40;;
55409;SDS011;41279;43.546;16.426;2022-11-28T07:13:48;19.48;;;8.10;;
55409;SDS011;41279;43.546;16.426;2022-11-28T07:16:24;18.67;;;6.97;;
55409;SDS011;41279;43.546;16.426;2022-11-28T07:18:51;16.52;;;8.02;;
55409;SDS011;41279;43.546;16.426;2022-11-28T07:21:17;21.48;;;6.97;;
55409;SDS011;41279;43.546;16.426;2022-11-28T07:23:44;19.85;;;7.60;;
55409;SDS011;41279;43.546;16.426;2022-11-28T07:26:10;21.95;;;7.25;;
55409;SDS011;41279;43.546;16.426;2022-11-28T07:28:38;20.35;;;7.13;;
55409;SDS011;41279;43.546;16.426;2022-11-28T07:31:05;20.35;;;7.82;;
55409;SDS011;41279;43.546;16.426;2022-11-28T07:33:33;22.27;;;7.72;;
55409;SDS011;41279;43.546;16.426;2022-11-28T07:36:02;18.73;;;7.22;;
55409;SDS011;41279;43.546;16.426;2022-11-28T07:38:30;18.90;;;7.88;;
55409;SDS011;41279;43.546;16.426;2022-11-28T07:41:01;20.58;;;8.27;;
55409;SDS011;41279;43.546;16.426;2022-11-28T07:43:37;17.88;;;7.35;;
55409;SDS011;41279;43.546;16.426;2022-11-28T07:46:05;17.13;;;6.95;;
55409;SDS011;41279;43.546;16.426;2022-11-28T07:48:31;16.15;;;6.90;;
55409;SDS011;41279;43.546;16.426;2022-11-28T07:50:57;20.23;;;7.35;;
55409;SDS011;41279;43.546;16.426;2022-11-28T07:53:23;16.85;;;7.03;;
55409;SDS011;41279;43.546;16.426;2022-11-28T07:55:48;15.93;;;7.43;;
55409;SDS011;41279;43.546;16.426;2022-11-28T07:58:13;15.02;;;6.57;;
55409;SDS011;41279;43.546;16.426;2022-11-28T08:00:39;16.13;;;6.88;;
55409;SDS011;41279;43.546;16.426;2022-11-28T08:03:04;17.73;;;6.85;;
55409;SDS011;41279;43.546;16.426;2022-11-28T08:05:30;17.55;;;7.30;;
55409;SDS011;41279;43.546;16.426;2022-11-28T08:07:55;17.35;;;7.20;;
55409;SDS011;41279;43.546;16.426;2022-11-28T08:10:20;20.40;;;7.45;;
55409;SDS011;41279;43.546;16.426;2022-11-28T08:12:46;19.60;;;7.82;;
55409;SDS011;41279;43.546;16.426;2022-11-28T08:15:11;16.45;;;7.20;;
55409;SDS011;41279;43.546;16.426;2022-11-28T08:17:36;20.20;;;7.80;;
55409;SDS011;41279;43.546;16.426;2022-11-28T08:20:02;17.52;;;7.05;;
55409;SDS011;41279;43.546;16.426;2022-11-28T08:22:28;14.05;;;6.80;;
55409;SDS011;41279;43.546;16.426;2022-11-28T08:24:53;19.90;;;7.45;;
55409;SDS011;41279;43.546;16.426;2022-11-28T08:27:18;19.73;;;8.50;;
55409;SDS011;41279;43.546;16.426;2022-11-28T08:29:44;13.90;;;7.68;;
55409;SDS011;41279;43.546;16.426;2022-11-28T08:32:09;16.83;;;7.68;;
55409;SDS011;41279;43.546;16.426;2022-11-28T08:34:35;19.90;;;6.93;;
55409;SDS011;41279;43.546;16.426;2022-11-28T08:37:00;12.00;;;6.75;;
55409;SDS011;41279;43.546;16.426;2022-11-28T08:39:25;16.48;;;7.50;;
55409;SDS011;41279;43.546;16.426;2022-11-28T08:41:52;15.10;;;7.07;;
55409;SDS011;41279;43.546;16.426;2022-11-28T08:44:20;15.65;;;6.93;;
55409;SDS011;41279;43.546;16.426;2022-11-28T08:46:46;11.98;;;6.47;;
55409;SDS011;41279;43.546;16.426;2022-11-28T08:49:12;12.95;;;6.53;;
55409;SDS011;41279;43.546;16.426;2022-11-28T08:51:37;17.35;;;6.80;;
55409;SDS011;41279;43.546;16.426;2022-11-28T08:54:02;15.27;;;6.78;;
55409;SDS011;41279;43.546;16.426;2022-11-28T08:56:29;13.85;;;6.88;;
55409;SDS011;41279;43.546;16.426;2022-11-28T08:58:54;12.43;;;6.50;;
55409;SDS011;41279;43.546;16.426;2022-11-28T09:01:23;10.57;;;5.85;;
55409;SDS011;41279;43.546;16.426;2022-11-28T09:03:50;12.52;;;6.10;;
55409;SDS011;41279;43.546;16.426;2022-11-28T09:06:16;15.25;;;6.97;;
55409;SDS011;41279;43.546;16.426;2022-11-28T09:08:42;15.48;;;7.45;;
55409;SDS011;41279;43.546;16.426;2022-11-28T09:11:10;14.07;;;6.78;;
55409;SDS011;41279;43.546;16.426;2022-11-28T09:13:36;16.05;;;6.78;;
55409;SDS011;41279;43.546;16.426;2022-11-28T09:16:02;10.65;;;5.72;;
55409;SDS011;41279;43.546;16.426;2022-11-28T09:18:28;11.15;;;6.28;;
55409;SDS011;41279;43.546;16.426;2022-11-28T09:21:02;16.52;;;6.82;;
55409;SDS011;41279;43.546;16.426;2022-11-28T09:23:29;17.98;;;9.10;;
55409;SDS011;41279;43.546;16.426;2022-11-28T09:25:55;12.73;;;6.47;;
55409;SDS011;41279;43.546;16.426;2022-11-28T09:28:21;13.25;;;6.57;;
55409;SDS011;41279;43.546;16.426;2022-11-28T09:30:47;12.88;;;6.95;;
55409;SDS011;41279;43.546;16.426;2022-11-28T09:33:12;10.32;;;6.25;;
55409;SDS011;41279;43.546;16.426;2022-11-28T09:35:38;11.68;;;6.72;;
55409;SDS011;41279;43.546;16.426;2022-11-28T09:38:04;11.57;;;7.07;;
55409;SDS011;41279;43.546;16.426;2022-11-28T09:40:33;12.63;;;6.55;;
55409;SDS011;41279;43.546;16.426;2022-11-28T09:43:03;11.27;;;6.43;;
55409;SDS011;41279;43.546;16.426;2022-11-28T09:45:37;14.40;;;7.00;;
55409;SDS011;41279;43.546;16.426;2022-11-28T09:48:12;11.38;;;6.43;;
55409;SDS011;41279;43.546;16.426;2022-11-28T09:50:43;10.90;;;6.22;;
55409;SDS011;41279;43.546;16.426;2022-11-28T09:53:13;12.07;;;6.32;;
55409;SDS011;41279;43.546;16.426;2022-11-28T09:55:48;11.73;;;6.00;;
55409;SDS011;41279;43.546;16.426;2022-11-28T09:58:20;11.43;;;6.15;;
55409;SDS011;41279;43.546;16.426;2022-11-28T10:03:35;11.60;;;6.38;;
55409;SDS011;41279;43.546;16.426;2022-11-28T10:06:18;12.98;;;7.10;;
55409;SDS011;41279;43.546;16.426;2022-11-28T10:22:19;11.68;;;6.68;;
55409;SDS011;41279;43.546;16.426;2022-11-28T10:24:55;14.52;;;7.60;;
55409;SDS011;41279;43.546;16.426;2022-11-28T10:27:24;14.45;;;7.82;;
55409;SDS011;41279;43.546;16.426;2022-11-28T10:30:02;10.88;;;6.20;;
55409;SDS011;41279;43.546;16.426;2022-11-28T10:32:51;11.23;;;6.57;;
55409;SDS011;41279;43.546;16.426;2022-11-28T10:35:31;13.27;;;7.10;;
55409;SDS011;41279;43.546;16.426;2022-11-28T10:38:12;11.27;;;6.82;;
55409;SDS011;41279;43.546;16.426;2022-11-28T10:40:43;12.18;;;7.07;;
55409;SDS011;41279;43.546;16.426;2022-11-28T10:43:14;13.80;;;7.13;;
55409;SDS011;41279;43.546;16.426;2022-11-28T10:51:10;12.93;;;7.65;;
55409;SDS011;41279;43.546;16.426;2022-11-28T10:53:58;12.98;;;7.13;;
55409;SDS011;41279;43.546;16.426;2022-11-28T11:02:02;18.35;;;8.98;;
55409;SDS011;41279;43.546;16.426;2022-11-28T11:04:42;13.80;;;7.75;;
55409;SDS011;41279;43.546;16.426;2022-11-28T11:07:17;13.43;;;7.50;;
55409;SDS011;41279;43.546;16.426;2022-11-28T11:09:49;14.20;;;7.82;;
55409;SDS011;41279;43.546;16.426;2022-11-28T11:12:19;13.48;;;7.70;;
55409;SDS011;41279;43.546;16.426;2022-11-28T11:14:48;23.23;;;14.57;;
55409;SDS011;41279;43.546;16.426;2022-11-28T11:17:33;15.52;;;7.75;;
55409;SDS011;41279;43.546;16.426;2022-11-28T11:23:16;14.25;;;7.97;;
55409;SDS011;41279;43.546;16.426;2022-11-28T11:25:44;25.30;;;14.02;;
55409;SDS011;41279;43.546;16.426;2022-11-28T11:28:26;13.38;;;7.57;;
55409;SDS011;41279;43.546;16.426;2022-11-28T11:31:01;12.57;;;7.38;;
55409;SDS011;41279;43.546;16.426;2022-11-28T11:33:31;13.27;;;7.20;;
55409;SDS011;41279;43.546;16.426;2022-11-28T11:35:59;14.70;;;7.65;;
55409;SDS011;41279;43.546;16.426;2022-11-28T11:38:29;13.20;;;7.63;;
55409;SDS011;41279;43.546;16.426;2022-11-28T11:40:57;13.57;;;7.45;;
55409;SDS011;41279;43.546;16.426;2022-11-28T11:43:43;13.43;;;7.82;;
55409;SDS011;41279;43.546;16.426;2022-11-28T11:46:10;12.98;;;7.40;;
55409;SDS011;41279;43.546;16.426;2022-11-28T11:48:40;14.45;;;7.38;;
55409;SDS011;41279;43.546;16.426;2022-11-28T11:53:45;15.20;;;7.35;;
55409;SDS011;41279;43.546;16.426;2022-11-28T11:56:10;12.77;;;6.70;;
55409;SDS011;41279;43.546;16.426;2022-11-28T11:58:39;12.40;;;6.13;;
55409;SDS011;41279;43.546;16.426;2022-11-28T12:01:10;10.75;;;6.32;;
55409;SDS011;41279;43.546;16.426;2022-11-28T12:03:47;13.10;;;6.72;;
55409;SDS011;41279;43.546;16.426;2022-11-28T12:06:20;14.43;;;7.32;;
55409;SDS011;41279;43.546;16.426;2022-11-28T12:08:53;11.65;;;6.82;;
55409;SDS011;41279;43.546;16.426;2022-11-28T12:11:28;12.82;;;6.57;;
55409;SDS011;41279;43.546;16.426;2022-11-28T12:13:59;12.88;;;6.72;;
55409;SDS011;41279;43.546;16.426;2022-11-28T12:24:46;12.50;;;6.20;;
55409;SDS011;41279;43.546;16.426;2022-11-28T12:32:20;11.52;;;6.43;;
55409;SDS011;41279;43.546;16.426;2022-11-28T12:35:16;12.57;;;6.30;;
55409;SDS011;41279;43.546;16.426;2022-11-28T12:56:59;10.55;;;6.28;;
55409;SDS011;41279;43.546;16.426;2022-11-28T13:05:53;12.87;;;7.30;;
55409;SDS011;41279;43.546;16.426;2022-11-28T13:17:22;14.88;;;7.75;;
55409;SDS011;41279;43.546;16.426;2022-11-28T13:22:41;14.02;;;7.00;;
55409;SDS011;41279;43.546;16.426;2022-11-28T13:25:28;15.23;;;9.38;;
55409;SDS011;41279;43.546;16.426;2022-11-28T13:28:13;12.98;;;7.18;;
55409;SDS011;41279;43.546;16.426;2022-11-28T13:30:49;14.38;;;7.80;;
55409;SDS011;41279;43.546;16.426;2022-11-28T13:36:05;18.00;;;7.70;;
55409;SDS011;41279;43.546;16.426;2022-11-28T13:38:41;13.43;;;7.43;;
55409;SDS011;41279;43.546;16.426;2022-11-28T13:41:19;12.87;;;7.67;;
55409;SDS011;41279;43.546;16.426;2022-11-28T13:46:20;14.65;;;7.72;;
55409;SDS011;41279;43.546;16.426;2022-11-28T13:51:16;12.75;;;6.78;;
55409;SDS011;41279;43.546;16.426;2022-11-28T13:53:46;13.18;;;7.53;;
55409;SDS011;41279;43.546;16.426;2022-11-28T13:56:20;13.40;;;6.80;;
55409;SDS011;41279;43.546;16.426;2022-11-28T13:58:55;13.00;;;6.93;;
55409;SDS011;41279;43.546;16.426;2022-11-28T14:01:28;11.65;;;7.18;;
55409;SDS011;41279;43.546;16.426;2022-11-28T14:04:07;12.27;;;6.43;;
55409;SDS011;41279;43.546;16.426;2022-11-28T14:06:46;12.43;;;6.85;;
55409;SDS011;41279;43.546;16.426;2022-11-28T14:25:39;12.18;;;6.55;;
55409;SDS011;41279;43.546;16.426;2022-11-28T14:28:15;14.75;;;6.78;;
55409;SDS011;41279;43.546;16.426;2022-11-28T14:33:36;14.43;;;7.03;;
55409;SDS011;41279;43.546;16.426;2022-11-28T14:36:23;13.70;;;7.03;;
55409;SDS011;41279;43.546;16.426;2022-11-28T14:39:00;13.30;;;6.47;;
55409;SDS011;41279;43.546;16.426;2022-11-28T14:41:26;13.32;;;6.47;;
55409;SDS011;41279;43.546;16.426;2022-11-28T14:43:51;14.63;;;7.47;;
55409;SDS011;41279;43.546;16.426;2022-11-28T14:57:09;15.98;;;7.85;;
55409;SDS011;41279;43.546;16.426;2022-11-28T14:59:40;24.20;;;10.02;;
55409;SDS011;41279;43.546;16.426;2022-11-28T15:07:41;48.88;;;19.65;;
55409;SDS011;41279;43.546;16.426;2022-11-28T15:10:35;83.45;;;32.63;;
55409;SDS011;41279;43.546;16.426;2022-11-28T15:13:17;77.50;;;33.10;;
55409;SDS011;41279;43.546;16.426;2022-11-28T15:15:45;46.20;;;19.90;;
55409;SDS011;41279;43.546;16.426;2022-11-28T15:18:15;83.45;;;31.38;;
55409;SDS011;41279;43.546;16.426;2022-11-28T15:20:50;113.55;;;42.83;;
55409;SDS011;41279;43.546;16.426;2022-11-28T15:23:24;149.98;;;53.50;;
55409;SDS011;41279;43.546;16.426;2022-11-28T15:25:54;98.05;;;41.13;;
55409;SDS011;41279;43.546;16.426;2022-11-28T15:28:21;93.97;;;36.28;;
55409;SDS011;41279;43.546;16.426;2022-11-28T15:30:52;113.90;;;47.03;;
55409;SDS011;41279;43.546;16.426;2022-11-28T15:33:19;144.05;;;55.60;;
55409;SDS011;41279;43.546;16.426;2022-11-28T15:38:26;50.90;;;23.27;;
55409;SDS011;41279;43.546;16.426;2022-11-28T15:40:54;50.65;;;23.10;;
55409;SDS011;41279;43.546;16.426;2022-11-28T15:43:20;33.60;;;18.00;;
55409;SDS011;41279;43.546;16.426;2022-11-28T15:45:48;24.27;;;14.25;;
55409;SDS011;41279;43.546;16.426;2022-11-28T15:48:24;28.30;;;14.20;;
55409;SDS011;41279;43.546;16.426;2022-11-28T15:50:52;29.58;;;15.35;;
55409;SDS011;41279;43.546;16.426;2022-11-28T15:53:19;31.05;;;17.17;;
55409;SDS011;41279;43.546;16.426;2022-11-28T15:55:45;32.45;;;16.23;;
55409;SDS011;41279;43.546;16.426;2022-11-28T15:58:24;31.88;;;17.42;;
55409;SDS011;41279;43.546;16.426;2022-11-28T16:03:22;35.15;;;18.83;;
55409;SDS011;41279;43.546;16.426;2022-11-28T16:05:50;50.22;;;29.05;;
55409;SDS011;41279;43.546;16.426;2022-11-28T16:08:28;42.60;;;26.38;;
55409;SDS011;41279;43.546;16.426;2022-11-28T16:10:59;60.53;;;33.00;;
55409;SDS011;41279;43.546;16.426;2022-11-28T16:13:27;35.60;;;21.58;;
55409;SDS011;41279;43.546;16.426;2022-11-28T16:15:54;36.15;;;19.60;;
55409;SDS011;41279;43.546;16.426;2022-11-28T16:18:22;32.75;;;16.48;;
55409;SDS011;41279;43.546;16.426;2022-11-28T16:20:50;33.80;;;16.67;;
55409;SDS011;41279;43.546;16.426;2022-11-28T16:23:20;33.17;;;15.07;;
55409;SDS011;41279;43.546;16.426;2022-11-28T16:26:02;29.25;;;16.13;;
55409;SDS011;41279;43.546;16.426;2022-11-28T16:28:29;32.13;;;16.85;;
55409;SDS011;41279;43.546;16.426;2022-11-28T16:30:59;32.67;;;16.80;;
55409;SDS011;41279;43.546;16.426;2022-11-28T16:33:35;40.65;;;22.83;;
55409;SDS011;41279;43.546;16.426;2022-11-28T16:38:35;31.17;;;17.77;;
55409;SDS011;41279;43.546;16.426;2022-11-28T16:41:01;24.42;;;11.70;;
55409;SDS011;41279;43.546;16.426;2022-11-28T16:43:31;21.92;;;11.85;;
55409;SDS011;41279;43.546;16.426;2022-11-28T16:46:00;27.35;;;13.35;;
55409;SDS011;41279;43.546;16.426;2022-11-28T16:48:28;30.15;;;15.65;;
55409;SDS011;41279;43.546;16.426;2022-11-28T16:53:44;33.08;;;15.70;;
55409;SDS011;41279;43.546;16.426;2022-11-28T16:59:17;67.05;;;28.58;;
55409;SDS011;41279;43.546;16.426;2022-11-28T17:01:45;85.40;;;34.47;;
55409;SDS011;41279;43.546;16.426;2022-11-28T17:06:51;81.15;;;33.58;;
55409;SDS011;41279;43.546;16.426;2022-11-28T17:09:18;73.63;;;29.67;;
55409;SDS011;41279;43.546;16.426;2022-11-28T17:11:44;47.22;;;22.42;;
55409;SDS011;41279;43.546;16.426;2022-11-28T17:14:14;31.08;;;17.00;;
55409;SDS011;41279;43.546;16.426;2022-11-28T17:16:40;24.92;;;14.43;;
55409;SDS011;41279;43.546;16.426;2022-11-28T17:19:06;21.40;;;11.23;;
55409;SDS011;41279;43.546;16.426;2022-11-28T17:24:00;14.70;;;7.50;;
55409;SDS011;41279;43.546;16.426;2022-11-28T17:26:26;22.73;;;9.35;;
55409;SDS011;41279;43.546;16.426;2022-11-28T17:28:51;20.65;;;9.70;;
55409;SDS011;41279;43.546;16.426;2022-11-28T17:31:17;28.17;;;11.02;;
55409;SDS011;41279;43.546;16.426;2022-11-28T17:33:42;22.50;;;10.85;;
55409;SDS011;41279;43.546;16.426;2022-11-28T17:36:10;22.10;;;11.82;;
55409;SDS011;41279;43.546;16.426;2022-11-28T17:38:36;21.60;;;10.73;;
55409;SDS011;41279;43.546;16.426;2022-11-28T17:41:02;20.75;;;9.70;;
55409;SDS011;41279;43.546;16.426;2022-11-28T17:43:29;27.48;;;9.98;;
55409;SDS011;41279;43.546;16.426;2022-11-28T17:45:55;18.92;;;9.25;;
55409;SDS011;41279;43.546;16.426;2022-11-28T17:48:20;29.42;;;11.07;;
55409;SDS011;41279;43.546;16.426;2022-11-28T17:50:46;20.42;;;9.10;;
55409;SDS011;41279;43.546;16.426;2022-11-28T17:53:14;13.48;;;7.85;;
55409;SDS011;41279;43.546;16.426;2022-11-28T17:55:42;16.48;;;8.68;;
55409;SDS011;41279;43.546;16.426;2022-11-28T17:58:13;16.20;;;8.85;;
55409;SDS011;41279;43.546;16.426;2022-11-28T18:00:41;16.77;;;8.98;;
55409;SDS011;41279;43.546;16.426;2022-11-28T18:03:07;16.83;;;9.27;;
55409;SDS011;41279;43.546;16.426;2022-11-28T18:05:43;17.02;;;9.35;;
55409;SDS011;41279;43.546;16.426;2022-11-28T18:08:10;19.55;;;10.50;;